Aérodrome :
LOGIN :

S'inscrire | Disclaimer

   EN    FR    IT 

 










Légende :    VFR   VFR Marginal   IFR   IFR Intensif   IFR Très Intensif
Visi : 
Plafond : 
>= 8 km
>= 3000ft
5 à 8 km
1000 à 3000 ft
1500m à 5 km
500 à 1000 ft
800 à 1500m
200 à 500 ft
< 800m
< 200 ft
Symboles :   Orages  Brouillard  Fortes neiges  Fortes précipitations  Vent > 20 kt
SIGMETs :   Divers  Orages  Givrage  Turbulence  Onde Orograph.  Cendres Volcan.






- Altitude de l'aérodrome : 359 ft
- Code IATA : BVA


LFOB - Beauvais

DERNIER METAR :
  • 151730Z AUTO 13004KT 2500 -SN BR OVC002 00/M00 Q0998 TEMPO 1200 SNRA

METARs EXPIRÉS :
  • 151700Z AUTO 12002KT 3000 -SN BR OVC003 00/M00 Q0998 TEMPO 1200 SNRA
  • 151630Z AUTO 00000KT 3300 -SN BR OVC004 00/M00 Q0997 TEMPO 1200 SNRA
  • 151600Z AUTO 00000KT 2100 -SN BR OVC003 01/M00 Q0997 TEMPO 02012KT 1200 SNRA
  • 151530Z AUTO 16001KT 1800 -SN BR BKN004 BKN008 01/M00 Q0997 TEMPO 02012KT 1200 SNRA
  • 151500Z AUTO VRB02KT 2800 -SN BR BKN005 01/M00 Q0997 TEMPO 1200 SNRA BECMG 02012KT

TAF TAF LFOB
Valide du 15 à 18h jusqu'au 16 à 18h UTC


151700Z 1518/1618 14005KT 6000 OVC007
TEMPO 1518/1602 3000 RASN OVC004
PROB40
TEMPO 1518/1523 1200 SN OVC002
TEMPO 1602/1610 4000 DZ OVC004
BECMG 1613/1615 OVC013
BECMG 1615/1617 BKN020
ATIS : +33 3 44 11 49 28



MET'MAP, la Météo Aéronautique d'un coup d'oeil ! - Copyright ORBIFLY Décembre 2007 - Disclaimer

ORBIFLY MET'MAP TEAM :

Programmation & Développement : Alexandra Zaïnal
Conception & Développement : Baudouin d'Aumeries
Co-Programmation & Développement : Marc-Olivier Méhu
Soutien technique & logistique : Manuel Goepfert

Contact : metmap@orbifly.com




SOURCES & CREDITS :

   NOAA